sensor_id;sensor_type;location;lat;lon;timestamp;P1;durP1;ratioP1;P2;durP2;ratioP2
48751;SDS011;34544;48.836;9.174;2023-09-07T00:00:29;7.65;;;4.65;;
48751;SDS011;34544;48.836;9.174;2023-09-07T00:02:55;5.13;;;4.60;;
48751;SDS011;34544;48.836;9.174;2023-09-07T00:05:21;9.48;;;5.07;;
48751;SDS011;34544;48.836;9.174;2023-09-07T00:07:46;8.00;;;4.50;;
48751;SDS011;34544;48.836;9.174;2023-09-07T00:10:12;7.03;;;5.53;;
48751;SDS011;34544;48.836;9.174;2023-09-07T00:12:39;9.35;;;5.30;;
48751;SDS011;34544;48.836;9.174;2023-09-07T00:15:05;9.15;;;5.40;;
48751;SDS011;34544;48.836;9.174;2023-09-07T00:17:32;8.68;;;5.22;;
48751;SDS011;34544;48.836;9.174;2023-09-07T00:19:57;8.88;;;4.93;;
48751;SDS011;34544;48.836;9.174;2023-09-07T00:22:23;8.00;;;5.47;;
48751;SDS011;34544;48.836;9.174;2023-09-07T00:24:50;6.88;;;4.70;;
48751;SDS011;34544;48.836;9.174;2023-09-07T00:27:16;6.80;;;5.55;;
48751;SDS011;34544;48.836;9.174;2023-09-07T00:29:42;7.05;;;5.55;;
48751;SDS011;34544;48.836;9.174;2023-09-07T00:32:08;8.07;;;4.85;;
48751;SDS011;34544;48.836;9.174;2023-09-07T00:34:34;7.07;;;5.72;;
48751;SDS011;34544;48.836;9.174;2023-09-07T00:37:00;7.97;;;5.00;;
48751;SDS011;34544;48.836;9.174;2023-09-07T00:39:26;7.00;;;4.50;;
48751;SDS011;34544;48.836;9.174;2023-09-07T00:41:51;6.93;;;5.38;;
48751;SDS011;34544;48.836;9.174;2023-09-07T00:44:17;7.93;;;5.18;;
48751;SDS011;34544;48.836;9.174;2023-09-07T00:46:43;8.40;;;5.40;;
48751;SDS011;34544;48.836;9.174;2023-09-07T00:49:11;7.68;;;4.80;;
48751;SDS011;34544;48.836;9.174;2023-09-07T00:51:38;6.43;;;5.50;;
48751;SDS011;34544;48.836;9.174;2023-09-07T00:54:03;10.02;;;5.40;;
48751;SDS011;34544;48.836;9.174;2023-09-07T00:56:30;5.90;;;5.30;;
48751;SDS011;34544;48.836;9.174;2023-09-07T00:58:57;13.65;;;6.38;;
48751;SDS011;34544;48.836;9.174;2023-09-07T01:01:25;8.75;;;5.38;;
48751;SDS011;34544;48.836;9.174;2023-09-07T01:03:51;5.32;;;4.82;;
48751;SDS011;34544;48.836;9.174;2023-09-07T01:06:18;5.88;;;4.45;;
48751;SDS011;34544;48.836;9.174;2023-09-07T01:08:49;7.20;;;5.03;;
48751;SDS011;34544;48.836;9.174;2023-09-07T01:11:18;5.70;;;4.53;;
48751;SDS011;34544;48.836;9.174;2023-09-07T01:13:52;5.30;;;4.72;;
48751;SDS011;34544;48.836;9.174;2023-09-07T01:16:21;13.90;;;6.13;;
48751;SDS011;34544;48.836;9.174;2023-09-07T01:18:49;6.15;;;4.78;;
48751;SDS011;34544;48.836;9.174;2023-09-07T01:21:15;8.07;;;5.07;;
48751;SDS011;34544;48.836;9.174;2023-09-07T01:23:43;6.30;;;4.97;;
48751;SDS011;34544;48.836;9.174;2023-09-07T01:26:11;7.55;;;4.68;;
48751;SDS011;34544;48.836;9.174;2023-09-07T01:28:37;7.47;;;5.50;;
48751;SDS011;34544;48.836;9.174;2023-09-07T01:31:04;6.53;;;5.10;;
48751;SDS011;34544;48.836;9.174;2023-09-07T01:33:31;5.55;;;4.82;;
48751;SDS011;34544;48.836;9.174;2023-09-07T01:35:56;6.53;;;4.82;;
48751;SDS011;34544;48.836;9.174;2023-09-07T01:38:22;6.15;;;5.28;;
48751;SDS011;34544;48.836;9.174;2023-09-07T01:40:48;9.73;;;5.13;;
48751;SDS011;34544;48.836;9.174;2023-09-07T01:43:14;8.05;;;5.22;;
48751;SDS011;34544;48.836;9.174;2023-09-07T01:45:39;6.65;;;5.03;;
48751;SDS011;34544;48.836;9.174;2023-09-07T01:48:09;7.38;;;6.22;;
48751;SDS011;34544;48.836;9.174;2023-09-07T01:50:36;6.55;;;5.00;;
48751;SDS011;34544;48.836;9.174;2023-09-07T01:53:02;11.43;;;6.68;;
48751;SDS011;34544;48.836;9.174;2023-09-07T01:55:31;7.85;;;4.70;;
48751;SDS011;34544;48.836;9.174;2023-09-07T01:57:58;8.95;;;5.78;;
48751;SDS011;34544;48.836;9.174;2023-09-07T02:00:24;5.70;;;5.10;;
48751;SDS011;34544;48.836;9.174;2023-09-07T02:02:50;6.28;;;5.05;;
48751;SDS011;34544;48.836;9.174;2023-09-07T02:05:16;6.13;;;5.53;;
48751;SDS011;34544;48.836;9.174;2023-09-07T02:07:42;5.78;;;4.97;;
48751;SDS011;34544;48.836;9.174;2023-09-07T02:10:08;9.45;;;4.85;;
48751;SDS011;34544;48.836;9.174;2023-09-07T02:12:35;8.25;;;5.47;;
48751;SDS011;34544;48.836;9.174;2023-09-07T02:15:01;6.13;;;5.30;;
48751;SDS011;34544;48.836;9.174;2023-09-07T02:17:28;7.47;;;5.32;;
48751;SDS011;34544;48.836;9.174;2023-09-07T02:19:54;7.90;;;5.50;;
48751;SDS011;34544;48.836;9.174;2023-09-07T02:22:20;7.28;;;5.10;;
48751;SDS011;34544;48.836;9.174;2023-09-07T02:24:46;6.32;;;5.65;;
48751;SDS011;34544;48.836;9.174;2023-09-07T02:27:11;6.95;;;5.55;;
48751;SDS011;34544;48.836;9.174;2023-09-07T02:29:37;11.18;;;5.72;;
48751;SDS011;34544;48.836;9.174;2023-09-07T02:32:03;7.85;;;5.88;;
48751;SDS011;34544;48.836;9.174;2023-09-07T02:34:29;11.35;;;7.00;;
48751;SDS011;34544;48.836;9.174;2023-09-07T02:36:55;7.57;;;5.65;;
48751;SDS011;34544;48.836;9.174;2023-09-07T02:39:22;7.57;;;5.85;;
48751;SDS011;34544;48.836;9.174;2023-09-07T02:41:52;6.72;;;6.05;;
48751;SDS011;34544;48.836;9.174;2023-09-07T02:44:18;5.90;;;5.35;;
48751;SDS011;34544;48.836;9.174;2023-09-07T02:46:43;5.97;;;4.80;;
48751;SDS011;34544;48.836;9.174;2023-09-07T02:49:09;6.60;;;5.55;;
48751;SDS011;34544;48.836;9.174;2023-09-07T02:51:35;6.68;;;5.03;;
48751;SDS011;34544;48.836;9.174;2023-09-07T02:54:01;7.68;;;5.78;;
48751;SDS011;34544;48.836;9.174;2023-09-07T02:56:29;6.53;;;5.63;;
48751;SDS011;34544;48.836;9.174;2023-09-07T02:58:55;8.80;;;6.22;;
48751;SDS011;34544;48.836;9.174;2023-09-07T03:01:21;5.28;;;4.60;;
48751;SDS011;34544;48.836;9.174;2023-09-07T03:03:48;6.38;;;5.60;;
48751;SDS011;34544;48.836;9.174;2023-09-07T03:06:14;6.13;;;5.30;;
48751;SDS011;34544;48.836;9.174;2023-09-07T03:08:46;7.65;;;5.78;;
48751;SDS011;34544;48.836;9.174;2023-09-07T03:11:13;9.63;;;5.38;;
48751;SDS011;34544;48.836;9.174;2023-09-07T03:13:39;7.28;;;5.65;;
48751;SDS011;34544;48.836;9.174;2023-09-07T03:16:05;7.47;;;6.38;;
48751;SDS011;34544;48.836;9.174;2023-09-07T03:18:31;6.40;;;5.22;;
48751;SDS011;34544;48.836;9.174;2023-09-07T03:20:58;7.40;;;5.75;;
48751;SDS011;34544;48.836;9.174;2023-09-07T03:23:24;6.43;;;5.72;;
48751;SDS011;34544;48.836;9.174;2023-09-07T03:25:50;8.75;;;6.13;;
48751;SDS011;34544;48.836;9.174;2023-09-07T03:28:17;9.15;;;5.80;;
48751;SDS011;34544;48.836;9.174;2023-09-07T03:30:45;5.70;;;5.10;;
48751;SDS011;34544;48.836;9.174;2023-09-07T03:33:11;6.95;;;5.63;;
48751;SDS011;34544;48.836;9.174;2023-09-07T03:35:36;8.93;;;5.35;;
48751;SDS011;34544;48.836;9.174;2023-09-07T03:38:03;9.10;;;5.70;;
48751;SDS011;34544;48.836;9.174;2023-09-07T03:40:29;10.38;;;6.20;;
48751;SDS011;34544;48.836;9.174;2023-09-07T03:42:55;9.65;;;5.82;;
48751;SDS011;34544;48.836;9.174;2023-09-07T03:45:21;7.68;;;5.72;;
48751;SDS011;34544;48.836;9.174;2023-09-07T03:47:47;6.03;;;5.45;;
48751;SDS011;34544;48.836;9.174;2023-09-07T03:50:15;7.38;;;5.07;;
48751;SDS011;34544;48.836;9.174;2023-09-07T03:52:40;5.82;;;5.22;;
48751;SDS011;34544;48.836;9.174;2023-09-07T03:55:07;6.93;;;5.15;;
48751;SDS011;34544;48.836;9.174;2023-09-07T03:57:33;6.28;;;5.65;;
48751;SDS011;34544;48.836;9.174;2023-09-07T03:59:59;7.22;;;6.38;;
48751;SDS011;34544;48.836;9.174;2023-09-07T04:02:25;7.78;;;5.85;;
48751;SDS011;34544;48.836;9.174;2023-09-07T04:04:52;7.68;;;6.50;;
48751;SDS011;34544;48.836;9.174;2023-09-07T04:07:19;7.57;;;5.63;;
48751;SDS011;34544;48.836;9.174;2023-09-07T04:09:45;6.18;;;5.35;;
48751;SDS011;34544;48.836;9.174;2023-09-07T04:12:11;8.73;;;6.95;;
48751;SDS011;34544;48.836;9.174;2023-09-07T04:14:38;9.82;;;6.60;;
48751;SDS011;34544;48.836;9.174;2023-09-07T04:17:04;8.63;;;6.90;;
48751;SDS011;34544;48.836;9.174;2023-09-07T04:19:31;8.88;;;6.35;;
48751;SDS011;34544;48.836;9.174;2023-09-07T04:21:57;8.70;;;6.97;;
48751;SDS011;34544;48.836;9.174;2023-09-07T04:24:24;8.63;;;7.22;;
48751;SDS011;34544;48.836;9.174;2023-09-07T04:26:50;10.65;;;7.18;;
48751;SDS011;34544;48.836;9.174;2023-09-07T04:29:16;8.93;;;6.53;;
48751;SDS011;34544;48.836;9.174;2023-09-07T04:31:42;9.30;;;7.40;;
48751;SDS011;34544;48.836;9.174;2023-09-07T04:34:07;9.98;;;6.68;;
48751;SDS011;34544;48.836;9.174;2023-09-07T04:36:34;11.13;;;7.50;;
48751;SDS011;34544;48.836;9.174;2023-09-07T04:39:00;9.55;;;7.20;;
48751;SDS011;34544;48.836;9.174;2023-09-07T04:41:26;11.00;;;7.85;;
48751;SDS011;34544;48.836;9.174;2023-09-07T04:43:52;7.93;;;7.13;;
48751;SDS011;34544;48.836;9.174;2023-09-07T04:46:20;7.55;;;6.80;;
48751;SDS011;34544;48.836;9.174;2023-09-07T04:48:47;7.82;;;7.03;;
48751;SDS011;34544;48.836;9.174;2023-09-07T04:51:13;11.02;;;6.82;;
48751;SDS011;34544;48.836;9.174;2023-09-07T04:53:40;10.05;;;7.68;;
48751;SDS011;34544;48.836;9.174;2023-09-07T04:56:06;8.63;;;6.60;;
48751;SDS011;34544;48.836;9.174;2023-09-07T04:58:37;8.48;;;7.05;;
48751;SDS011;34544;48.836;9.174;2023-09-07T05:01:03;9.65;;;6.72;;
48751;SDS011;34544;48.836;9.174;2023-09-07T05:03:30;10.40;;;6.88;;
48751;SDS011;34544;48.836;9.174;2023-09-07T05:05:56;9.85;;;7.13;;
48751;SDS011;34544;48.836;9.174;2023-09-07T05:08:23;8.82;;;7.72;;
48751;SDS011;34544;48.836;9.174;2023-09-07T05:10:54;8.15;;;6.88;;
48751;SDS011;34544;48.836;9.174;2023-09-07T05:13:21;10.93;;;7.00;;
48751;SDS011;34544;48.836;9.174;2023-09-07T05:15:47;10.38;;;6.68;;
48751;SDS011;34544;48.836;9.174;2023-09-07T05:18:15;11.77;;;7.28;;
48751;SDS011;34544;48.836;9.174;2023-09-07T05:20:41;14.35;;;7.72;;
48751;SDS011;34544;48.836;9.174;2023-09-07T05:23:08;11.10;;;7.43;;
48751;SDS011;34544;48.836;9.174;2023-09-07T05:25:34;10.73;;;7.47;;
48751;SDS011;34544;48.836;9.174;2023-09-07T05:27:59;8.32;;;6.78;;
48751;SDS011;34544;48.836;9.174;2023-09-07T05:30:25;10.20;;;7.38;;
48751;SDS011;34544;48.836;9.174;2023-09-07T05:32:51;8.57;;;6.80;;
48751;SDS011;34544;48.836;9.174;2023-09-07T05:35:17;11.50;;;7.65;;
48751;SDS011;34544;48.836;9.174;2023-09-07T05:37:42;8.68;;;6.57;;
48751;SDS011;34544;48.836;9.174;2023-09-07T05:40:08;9.10;;;7.50;;
48751;SDS011;34544;48.836;9.174;2023-09-07T05:42:35;9.82;;;7.45;;
48751;SDS011;34544;48.836;9.174;2023-09-07T05:45:01;7.50;;;6.63;;
48751;SDS011;34544;48.836;9.174;2023-09-07T05:47:27;8.57;;;6.45;;
48751;SDS011;34544;48.836;9.174;2023-09-07T05:49:54;12.73;;;7.35;;
48751;SDS011;34544;48.836;9.174;2023-09-07T05:52:19;8.48;;;6.85;;
48751;SDS011;34544;48.836;9.174;2023-09-07T05:54:45;10.40;;;6.57;;
48751;SDS011;34544;48.836;9.174;2023-09-07T05:57:11;13.07;;;8.27;;
48751;SDS011;34544;48.836;9.174;2023-09-07T05:59:37;8.20;;;7.15;;
48751;SDS011;34544;48.836;9.174;2023-09-07T06:02:03;10.77;;;7.72;;
48751;SDS011;34544;48.836;9.174;2023-09-07T06:04:29;12.05;;;7.18;;
48751;SDS011;34544;48.836;9.174;2023-09-07T06:06:56;12.52;;;7.43;;
48751;SDS011;34544;48.836;9.174;2023-09-07T06:09:21;10.20;;;7.50;;
48751;SDS011;34544;48.836;9.174;2023-09-07T06:11:47;10.70;;;7.22;;
48751;SDS011;34544;48.836;9.174;2023-09-07T06:14:13;10.20;;;7.45;;
48751;SDS011;34544;48.836;9.174;2023-09-07T06:16:39;10.32;;;7.00;;
48751;SDS011;34544;48.836;9.174;2023-09-07T06:19:05;7.75;;;6.40;;
48751;SDS011;34544;48.836;9.174;2023-09-07T06:21:33;12.88;;;7.90;;
48751;SDS011;34544;48.836;9.174;2023-09-07T06:23:58;12.45;;;8.05;;
48751;SDS011;34544;48.836;9.174;2023-09-07T06:26:24;11.68;;;7.95;;
48751;SDS011;34544;48.836;9.174;2023-09-07T06:28:50;8.90;;;7.80;;
48751;SDS011;34544;48.836;9.174;2023-09-07T06:31:16;13.27;;;8.07;;
48751;SDS011;34544;48.836;9.174;2023-09-07T06:33:42;14.80;;;7.60;;
48751;SDS011;34544;48.836;9.174;2023-09-07T06:36:08;11.38;;;7.25;;
48751;SDS011;34544;48.836;9.174;2023-09-07T06:38:34;12.68;;;8.18;;
48751;SDS011;34544;48.836;9.174;2023-09-07T06:41:00;9.63;;;7.97;;
48751;SDS011;34544;48.836;9.174;2023-09-07T06:43:26;8.90;;;8.00;;
48751;SDS011;34544;48.836;9.174;2023-09-07T06:45:53;8.90;;;7.10;;
48751;SDS011;34544;48.836;9.174;2023-09-07T06:48:20;8.38;;;6.90;;
48751;SDS011;34544;48.836;9.174;2023-09-07T06:50:45;8.85;;;7.90;;
48751;SDS011;34544;48.836;9.174;2023-09-07T06:53:11;10.63;;;6.60;;
48751;SDS011;34544;48.836;9.174;2023-09-07T06:55:37;9.65;;;7.15;;
48751;SDS011;34544;48.836;9.174;2023-09-07T06:58:03;12.73;;;6.50;;
48751;SDS011;34544;48.836;9.174;2023-09-07T07:00:29;10.48;;;6.85;;
48751;SDS011;34544;48.836;9.174;2023-09-07T07:02:55;10.45;;;6.85;;
48751;SDS011;34544;48.836;9.174;2023-09-07T07:05:21;8.40;;;6.25;;
48751;SDS011;34544;48.836;9.174;2023-09-07T07:07:48;16.02;;;7.03;;
48751;SDS011;34544;48.836;9.174;2023-09-07T07:10:14;8.18;;;6.78;;
48751;SDS011;34544;48.836;9.174;2023-09-07T07:12:40;6.88;;;5.57;;
48751;SDS011;34544;48.836;9.174;2023-09-07T07:15:06;6.88;;;5.18;;
48751;SDS011;34544;48.836;9.174;2023-09-07T07:17:33;11.27;;;5.78;;
48751;SDS011;34544;48.836;9.174;2023-09-07T07:19:59;8.68;;;5.15;;
48751;SDS011;34544;48.836;9.174;2023-09-07T07:22:24;9.15;;;4.90;;
48751;SDS011;34544;48.836;9.174;2023-09-07T07:24:52;5.22;;;4.72;;
48751;SDS011;34544;48.836;9.174;2023-09-07T07:27:19;7.25;;;5.28;;
48751;SDS011;34544;48.836;9.174;2023-09-07T07:29:45;7.47;;;5.28;;
48751;SDS011;34544;48.836;9.174;2023-09-07T07:32:11;7.35;;;4.85;;
48751;SDS011;34544;48.836;9.174;2023-09-07T07:34:37;8.40;;;4.55;;
48751;SDS011;34544;48.836;9.174;2023-09-07T07:37:03;5.38;;;4.60;;
48751;SDS011;34544;48.836;9.174;2023-09-07T07:39:29;8.15;;;4.63;;
48751;SDS011;34544;48.836;9.174;2023-09-07T07:41:55;5.55;;;3.95;;
48751;SDS011;34544;48.836;9.174;2023-09-07T07:44:22;4.88;;;4.32;;
48751;SDS011;34544;48.836;9.174;2023-09-07T07:46:48;8.63;;;4.45;;
48751;SDS011;34544;48.836;9.174;2023-09-07T07:49:14;8.00;;;4.30;;
48751;SDS011;34544;48.836;9.174;2023-09-07T07:51:41;7.05;;;3.97;;
48751;SDS011;34544;48.836;9.174;2023-09-07T07:54:07;10.57;;;4.32;;
48751;SDS011;34544;48.836;9.174;2023-09-07T07:56:33;8.82;;;4.15;;
48751;SDS011;34544;48.836;9.174;2023-09-07T07:59:00;6.60;;;4.32;;
48751;SDS011;34544;48.836;9.174;2023-09-07T08:01:26;5.00;;;4.13;;
48751;SDS011;34544;48.836;9.174;2023-09-07T08:03:54;5.93;;;4.00;;
48751;SDS011;34544;48.836;9.174;2023-09-07T08:06:21;7.22;;;3.95;;
48751;SDS011;34544;48.836;9.174;2023-09-07T08:08:47;4.13;;;3.67;;
48751;SDS011;34544;48.836;9.174;2023-09-07T08:11:13;6.13;;;4.53;;
48751;SDS011;34544;48.836;9.174;2023-09-07T08:13:40;7.28;;;4.18;;
48751;SDS011;34544;48.836;9.174;2023-09-07T08:16:07;5.80;;;4.25;;
48751;SDS011;34544;48.836;9.174;2023-09-07T08:18:33;6.07;;;3.40;;
48751;SDS011;34544;48.836;9.174;2023-09-07T08:20:59;6.18;;;4.10;;
48751;SDS011;34544;48.836;9.174;2023-09-07T08:23:26;4.72;;;3.65;;
48751;SDS011;34544;48.836;9.174;2023-09-07T08:25:52;4.25;;;3.58;;
48751;SDS011;34544;48.836;9.174;2023-09-07T08:28:19;5.40;;;4.32;;
48751;SDS011;34544;48.836;9.174;2023-09-07T08:30:48;6.55;;;3.92;;
48751;SDS011;34544;48.836;9.174;2023-09-07T08:33:16;10.02;;;4.35;;
48751;SDS011;34544;48.836;9.174;2023-09-07T08:35:42;8.98;;;4.85;;
48751;SDS011;34544;48.836;9.174;2023-09-07T08:38:12;6.28;;;4.43;;
48751;SDS011;34544;48.836;9.174;2023-09-07T08:40:38;5.95;;;4.72;;
48751;SDS011;34544;48.836;9.174;2023-09-07T08:43:05;5.95;;;5.30;;
48751;SDS011;34544;48.836;9.174;2023-09-07T08:45:37;6.85;;;3.65;;
48751;SDS011;34544;48.836;9.174;2023-09-07T08:48:08;5.80;;;4.25;;
48751;SDS011;34544;48.836;9.174;2023-09-07T08:50:37;6.32;;;4.55;;
48751;SDS011;34544;48.836;9.174;2023-09-07T08:53:03;5.13;;;4.68;;
48751;SDS011;34544;48.836;9.174;2023-09-07T08:55:29;6.05;;;3.70;;
48751;SDS011;34544;48.836;9.174;2023-09-07T08:57:55;4.90;;;4.15;;
48751;SDS011;34544;48.836;9.174;2023-09-07T09:00:21;9.02;;;4.40;;
48751;SDS011;34544;48.836;9.174;2023-09-07T09:02:48;4.22;;;3.83;;
48751;SDS011;34544;48.836;9.174;2023-09-07T09:05:15;3.97;;;3.50;;
48751;SDS011;34544;48.836;9.174;2023-09-07T09:07:43;5.07;;;3.70;;
48751;SDS011;34544;48.836;9.174;2023-09-07T09:10:09;9.80;;;4.32;;
48751;SDS011;34544;48.836;9.174;2023-09-07T09:12:35;4.63;;;3.97;;
48751;SDS011;34544;48.836;9.174;2023-09-07T09:15:09;4.82;;;4.32;;
48751;SDS011;34544;48.836;9.174;2023-09-07T09:17:35;6.68;;;4.05;;
48751;SDS011;34544;48.836;9.174;2023-09-07T09:20:01;8.90;;;4.20;;
48751;SDS011;34544;48.836;9.174;2023-09-07T09:22:30;8.32;;;4.20;;
48751;SDS011;34544;48.836;9.174;2023-09-07T09:24:56;5.18;;;4.25;;
48751;SDS011;34544;48.836;9.174;2023-09-07T09:27:27;7.43;;;4.17;;
48751;SDS011;34544;48.836;9.174;2023-09-07T09:29:53;6.03;;;3.80;;
48751;SDS011;34544;48.836;9.174;2023-09-07T09:32:19;10.40;;;4.10;;
48751;SDS011;34544;48.836;9.174;2023-09-07T09:34:44;4.47;;;3.97;;
48751;SDS011;34544;48.836;9.174;2023-09-07T09:37:14;4.63;;;3.88;;
48751;SDS011;34544;48.836;9.174;2023-09-07T09:39:41;3.80;;;3.40;;
48751;SDS011;34544;48.836;9.174;2023-09-07T09:42:08;4.90;;;3.95;;
48751;SDS011;34544;48.836;9.174;2023-09-07T09:44:34;6.20;;;4.22;;
48751;SDS011;34544;48.836;9.174;2023-09-07T09:47:02;4.88;;;3.25;;
48751;SDS011;34544;48.836;9.174;2023-09-07T09:49:28;7.10;;;3.85;;
48751;SDS011;34544;48.836;9.174;2023-09-07T09:51:54;4.68;;;3.45;;
48751;SDS011;34544;48.836;9.174;2023-09-07T09:54:23;5.95;;;3.92;;
48751;SDS011;34544;48.836;9.174;2023-09-07T09:56:51;5.22;;;4.00;;
48751;SDS011;34544;48.836;9.174;2023-09-07T09:59:17;6.20;;;3.50;;
48751;SDS011;34544;48.836;9.174;2023-09-07T10:01:44;4.50;;;3.42;;
48751;SDS011;34544;48.836;9.174;2023-09-07T10:04:12;4.40;;;3.92;;
48751;SDS011;34544;48.836;9.174;2023-09-07T10:06:49;5.10;;;4.00;;
48751;SDS011;34544;48.836;9.174;2023-09-07T10:09:23;4.10;;;3.70;;
48751;SDS011;34544;48.836;9.174;2023-09-07T10:11:53;4.88;;;3.47;;
48751;SDS011;34544;48.836;9.174;2023-09-07T10:14:19;4.40;;;4.00;;
48751;SDS011;34544;48.836;9.174;2023-09-07T10:16:49;6.30;;;4.07;;
48751;SDS011;34544;48.836;9.174;2023-09-07T10:19:19;4.63;;;3.95;;
48751;SDS011;34544;48.836;9.174;2023-09-07T10:21:46;4.45;;;3.35;;
48751;SDS011;34544;48.836;9.174;2023-09-07T10:24:46;5.95;;;4.03;;
48751;SDS011;34544;48.836;9.174;2023-09-07T10:27:07;4.18;;;3.50;;
48751;SDS011;34544;48.836;9.174;2023-09-07T10:29:42;8.65;;;4.05;;
48751;SDS011;34544;48.836;9.174;2023-09-07T10:32:09;8.40;;;4.05;;
48751;SDS011;34544;48.836;9.174;2023-09-07T10:34:37;5.18;;;3.67;;
48751;SDS011;34544;48.836;9.174;2023-09-07T10:37:04;6.60;;;3.70;;
48751;SDS011;34544;48.836;9.174;2023-09-07T10:39:33;6.80;;;4.03;;
48751;SDS011;34544;48.836;9.174;2023-09-07T10:41:59;4.18;;;3.55;;
48751;SDS011;34544;48.836;9.174;2023-09-07T10:44:26;7.28;;;4.03;;
48751;SDS011;34544;48.836;9.174;2023-09-07T10:46:53;4.43;;;3.58;;
48751;SDS011;34544;48.836;9.174;2023-09-07T10:49:19;7.30;;;3.85;;
48751;SDS011;34544;48.836;9.174;2023-09-07T10:51:45;9.77;;;3.83;;
48751;SDS011;34544;48.836;9.174;2023-09-07T10:54:15;5.00;;;3.42;;
48751;SDS011;34544;48.836;9.174;2023-09-07T10:56:48;4.57;;;3.38;;
48751;SDS011;34544;48.836;9.174;2023-09-07T10:59:15;3.63;;;3.15;;
48751;SDS011;34544;48.836;9.174;2023-09-07T11:01:44;3.92;;;3.58;;
48751;SDS011;34544;48.836;9.174;2023-09-07T11:04:11;5.47;;;3.75;;
48751;SDS011;34544;48.836;9.174;2023-09-07T11:06:38;5.00;;;3.50;;
48751;SDS011;34544;48.836;9.174;2023-09-07T11:09:05;3.95;;;2.95;;
48751;SDS011;34544;48.836;9.174;2023-09-07T11:11:35;4.43;;;3.30;;
48751;SDS011;34544;48.836;9.174;2023-09-07T11:14:02;6.82;;;3.33;;
48751;SDS011;34544;48.836;9.174;2023-09-07T11:16:29;3.60;;;3.30;;
48751;SDS011;34544;48.836;9.174;2023-09-07T11:18:54;2.75;;;2.55;;
48751;SDS011;34544;48.836;9.174;2023-09-07T11:21:20;4.53;;;3.22;;
48751;SDS011;34544;48.836;9.174;2023-09-07T11:23:47;2.70;;;2.47;;
48751;SDS011;34544;48.836;9.174;2023-09-07T11:26:14;5.18;;;3.03;;
48751;SDS011;34544;48.836;9.174;2023-09-07T11:28:44;5.50;;;3.20;;
48751;SDS011;34544;48.836;9.174;2023-09-07T11:31:11;6.00;;;3.15;;
48751;SDS011;34544;48.836;9.174;2023-09-07T11:33:36;4.15;;;2.85;;
48751;SDS011;34544;48.836;9.174;2023-09-07T11:36:03;4.38;;;3.05;;
48751;SDS011;34544;48.836;9.174;2023-09-07T11:38:31;4.07;;;2.90;;
48751;SDS011;34544;48.836;9.174;2023-09-07T11:41:00;4.05;;;2.75;;
48751;SDS011;34544;48.836;9.174;2023-09-07T11:43:26;5.00;;;2.90;;
48751;SDS011;34544;48.836;9.174;2023-09-07T11:45:52;5.03;;;3.15;;
48751;SDS011;34544;48.836;9.174;2023-09-07T11:48:18;3.85;;;3.55;;
48751;SDS011;34544;48.836;9.174;2023-09-07T11:50:43;5.80;;;2.80;;
48751;SDS011;34544;48.836;9.174;2023-09-07T11:53:09;3.50;;;3.20;;
48751;SDS011;34544;48.836;9.174;2023-09-07T11:55:35;4.18;;;2.90;;
48751;SDS011;34544;48.836;9.174;2023-09-07T11:58:02;3.67;;;2.85;;
48751;SDS011;34544;48.836;9.174;2023-09-07T12:00:29;4.32;;;3.25;;
48751;SDS011;34544;48.836;9.174;2023-09-07T12:02:56;5.53;;;2.70;;
48751;SDS011;34544;48.836;9.174;2023-09-07T12:05:22;2.60;;;2.40;;
48751;SDS011;34544;48.836;9.174;2023-09-07T12:07:48;5.93;;;3.13;;
48751;SDS011;34544;48.836;9.174;2023-09-07T12:10:14;3.35;;;3.03;;
48751;SDS011;34544;48.836;9.174;2023-09-07T12:12:40;3.30;;;2.88;;
48751;SDS011;34544;48.836;9.174;2023-09-07T12:15:06;4.13;;;2.90;;
48751;SDS011;34544;48.836;9.174;2023-09-07T12:17:32;4.88;;;2.83;;
48751;SDS011;34544;48.836;9.174;2023-09-07T12:19:58;4.70;;;3.00;;
48751;SDS011;34544;48.836;9.174;2023-09-07T12:22:25;3.60;;;3.05;;
48751;SDS011;34544;48.836;9.174;2023-09-07T12:24:52;3.05;;;2.80;;
48751;SDS011;34544;48.836;9.174;2023-09-07T12:27:18;3.67;;;2.70;;
48751;SDS011;34544;48.836;9.174;2023-09-07T12:29:44;2.72;;;2.53;;
48751;SDS011;34544;48.836;9.174;2023-09-07T12:32:10;2.83;;;2.20;;
48751;SDS011;34544;48.836;9.174;2023-09-07T12:34:36;3.83;;;3.28;;
48751;SDS011;34544;48.836;9.174;2023-09-07T12:37:02;2.97;;;2.65;;
48751;SDS011;34544;48.836;9.174;2023-09-07T12:39:31;4.68;;;2.45;;
48751;SDS011;34544;48.836;9.174;2023-09-07T12:41:57;3.30;;;2.33;;
48751;SDS011;34544;48.836;9.174;2023-09-07T12:44:23;3.60;;;2.58;;
48751;SDS011;34544;48.836;9.174;2023-09-07T12:46:48;3.15;;;2.42;;
48751;SDS011;34544;48.836;9.174;2023-09-07T12:49:14;3.38;;;2.45;;
48751;SDS011;34544;48.836;9.174;2023-09-07T12:51:41;3.05;;;2.58;;
48751;SDS011;34544;48.836;9.174;2023-09-07T12:54:07;2.47;;;2.20;;
48751;SDS011;34544;48.836;9.174;2023-09-07T12:56:34;4.85;;;2.80;;
48751;SDS011;34544;48.836;9.174;2023-09-07T12:59:00;4.07;;;2.70;;
48751;SDS011;34544;48.836;9.174;2023-09-07T13:01:26;2.60;;;2.40;;
48751;SDS011;34544;48.836;9.174;2023-09-07T13:03:51;2.42;;;2.22;;
48751;SDS011;34544;48.836;9.174;2023-09-07T13:06:17;3.15;;;2.40;;
48751;SDS011;34544;48.836;9.174;2023-09-07T13:08:44;2.95;;;2.75;;
48751;SDS011;34544;48.836;9.174;2023-09-07T13:11:10;2.63;;;2.42;;
48751;SDS011;34544;48.836;9.174;2023-09-07T13:13:36;5.00;;;2.65;;
48751;SDS011;34544;48.836;9.174;2023-09-07T13:16:03;2.78;;;2.40;;
48751;SDS011;34544;48.836;9.174;2023-09-07T13:18:29;8.45;;;2.72;;
48751;SDS011;34544;48.836;9.174;2023-09-07T13:20:56;3.00;;;2.78;;
48751;SDS011;34544;48.836;9.174;2023-09-07T13:23:29;2.58;;;2.38;;
48751;SDS011;34544;48.836;9.174;2023-09-07T13:25:57;2.53;;;2.33;;
48751;SDS011;34544;48.836;9.174;2023-09-07T13:28:25;2.55;;;2.35;;
48751;SDS011;34544;48.836;9.174;2023-09-07T13:30:51;3.20;;;2.90;;
48751;SDS011;34544;48.836;9.174;2023-09-07T13:33:16;5.90;;;2.88;;
48751;SDS011;34544;48.836;9.174;2023-09-07T13:35:42;3.35;;;3.05;;
48751;SDS011;34544;48.836;9.174;2023-09-07T13:38:09;3.28;;;2.83;;
48751;SDS011;34544;48.836;9.174;2023-09-07T13:40:34;3.67;;;2.80;;
48751;SDS011;34544;48.836;9.174;2023-09-07T13:43:00;4.95;;;2.75;;
48751;SDS011;34544;48.836;9.174;2023-09-07T13:45:26;4.80;;;2.70;;
48751;SDS011;34544;48.836;9.174;2023-09-07T13:47:53;5.75;;;2.85;;
48751;SDS011;34544;48.836;9.174;2023-09-07T13:50:19;4.03;;;2.95;;
48751;SDS011;34544;48.836;9.174;2023-09-07T13:52:44;2.97;;;2.47;;
48751;SDS011;34544;48.836;9.174;2023-09-07T13:55:10;2.63;;;2.42;;
48751;SDS011;34544;48.836;9.174;2023-09-07T13:57:36;2.78;;;2.58;;
48751;SDS011;34544;48.836;9.174;2023-09-07T14:00:02;6.45;;;2.50;;
48751;SDS011;34544;48.836;9.174;2023-09-07T14:02:29;2.88;;;2.67;;
48751;SDS011;34544;48.836;9.174;2023-09-07T14:04:55;2.50;;;2.30;;
48751;SDS011;34544;48.836;9.174;2023-09-07T14:07:21;6.20;;;2.95;;
48751;SDS011;34544;48.836;9.174;2023-09-07T14:09:47;3.05;;;2.55;;
48751;SDS011;34544;48.836;9.174;2023-09-07T14:12:12;3.17;;;2.65;;
48751;SDS011;34544;48.836;9.174;2023-09-07T14:14:38;3.70;;;2.92;;
48751;SDS011;34544;48.836;9.174;2023-09-07T14:17:04;4.32;;;2.42;;
48751;SDS011;34544;48.836;9.174;2023-09-07T14:19:31;7.10;;;2.63;;
48751;SDS011;34544;48.836;9.174;2023-09-07T14:21:57;5.95;;;2.65;;
48751;SDS011;34544;48.836;9.174;2023-09-07T14:24:23;7.35;;;2.60;;
48751;SDS011;34544;48.836;9.174;2023-09-07T14:26:49;2.65;;;2.45;;
48751;SDS011;34544;48.836;9.174;2023-09-07T14:29:15;3.55;;;2.75;;
48751;SDS011;34544;48.836;9.174;2023-09-07T14:31:41;2.47;;;2.28;;
48751;SDS011;34544;48.836;9.174;2023-09-07T14:34:11;3.78;;;2.78;;
48751;SDS011;34544;48.836;9.174;2023-09-07T14:36:37;5.78;;;2.67;;
48751;SDS011;34544;48.836;9.174;2023-09-07T14:39:05;8.00;;;2.58;;
48751;SDS011;34544;48.836;9.174;2023-09-07T14:41:32;2.83;;;2.63;;